Time;durP1;ratioP1;P1;durP2;ratioP2;P2;SDS_P1;SDS_P2;PMS_P1;PMS_P2;Temp;Humidity;BMP_temperature;BMP_pressure;BME280_temperature;BME280_humidity;BME280_pressure;Samples;Min_cycle;Max_cycle;Signal;HPM_P1;HPM_P2
2021/06/06 00:01:03;;;;;;;23.15;13.07;;;16.70;99.90;;;;;;5077487;28;20382;-54
2021/06/06 00:03:34;;;;;;;21.92;13.05;;;16.80;99.90;;;;;;5091934;28;20410;-54
2021/06/06 00:06:06;;;;;;;20.95;13.07;;;16.80;99.90;;;;;;5091132;28;20473;-53
2021/06/06 00:08:33;;;;;;;25.43;13.63;;;16.70;99.90;;;;;;5091707;28;20397;-53
2021/06/06 00:11:05;;;;;;;20.58;12.07;;;16.80;99.90;;;;;;5090953;28;20382;-52
2021/06/06 00:13:32;;;;;;;21.45;12.77;;;16.80;99.90;;;;;;5081173;28;20391;-53
2021/06/06 00:15:57;;;;;;;21.88;13.52;;;16.80;99.90;;;;;;5070524;28;20426;-53
2021/06/06 00:18:23;;;;;;;22.02;13.50;;;16.80;99.90;;;;;;5071011;28;20456;-53
2021/06/06 00:20:49;;;;;;;20.40;12.20;;;16.90;99.90;;;;;;5070908;28;20400;-59
2021/06/06 00:23:15;;;;;;;19.70;12.75;;;16.90;99.90;;;;;;5070973;28;20386;-52
2021/06/06 00:25:41;;;;;;;22.57;13.40;;;17.00;99.90;;;;;;5071113;28;20387;-52
2021/06/06 00:28:07;;;;;;;19.85;12.65;;;17.00;99.90;;;;;;5070382;28;20396;-53
2021/06/06 00:30:34;;;;;;;22.30;13.13;;;17.00;99.90;;;;;;5071213;28;20380;-52
2021/06/06 00:32:59;;;;;;;21.10;13.20;;;17.00;99.90;;;;;;5070041;28;20379;-53
2021/06/06 00:35:26;;;;;;;20.85;12.85;;;17.10;99.90;;;;;;5070981;28;20954;-53
2021/06/06 00:37:51;;;;;;;21.43;12.43;;;17.10;99.90;;;;;;5069828;28;20431;-55
2021/06/06 00:40:22;;;;;;;20.77;12.15;;;17.00;99.90;;;;;;5070756;28;20789;-53
2021/06/06 00:42:48;;;;;;;20.55;12.23;;;17.00;99.90;;;;;;5070824;28;20380;-59
2021/06/06 00:45:24;;;;;;;19.13;11.60;;;17.00;99.90;;;;;;5070459;28;20911;-52
2021/06/06 00:47:50;;;;;;;18.40;12.38;;;17.00;99.90;;;;;;5069933;28;20383;-58
2021/06/06 00:50:38;;;;;;;17.60;11.20;;;17.00;99.90;;;;;;5070319;28;20372;-53
2021/06/06 00:53:19;;;;;;;18.40;11.40;;;17.00;99.90;;;;;;5069902;28;20423;-53
2021/06/06 00:55:45;;;;;;;16.92;11.77;;;17.00;99.90;;;;;;5070550;28;20745;-53
2021/06/06 00:58:13;;;;;;;17.00;10.67;;;17.10;99.90;;;;;;5069706;28;20404;-52
2021/06/06 01:00:48;;;;;;;16.85;10.65;;;17.10;99.90;;;;;;5069853;28;20411;-53
2021/06/06 01:03:17;;;;;;;19.35;11.50;;;17.00;99.90;;;;;;5069781;28;20382;-52
2021/06/06 01:05:48;;;;;;;16.70;10.50;;;16.90;99.90;;;;;;5069702;28;20888;-53
2021/06/06 01:08:16;;;;;;;19.13;11.30;;;16.80;99.90;;;;;;5069809;28;20388;-53
2021/06/06 01:10:42;;;;;;;16.70;11.05;;;16.80;99.90;;;;;;5070105;28;20387;-53
2021/06/06 01:13:25;;;;;;;18.90;11.95;;;16.80;99.90;;;;;;5069488;28;20372;-53
2021/06/06 01:16:04;;;;;;;18.40;11.57;;;16.80;99.90;;;;;;5069760;28;20387;-59
2021/06/06 01:18:34;;;;;;;16.08;11.23;;;16.70;99.90;;;;;;5070157;28;20766;-53
2021/06/06 01:21:06;;;;;;;17.63;10.35;;;16.80;99.90;;;;;;5069184;28;20395;-53
2021/06/06 01:23:37;;;;;;;19.20;10.23;;;16.80;99.90;;;;;;5070147;28;20398;-54
2021/06/06 01:26:17;;;;;;;16.92;10.93;;;16.80;99.90;;;;;;5069623;28;20431;-53
2021/06/06 01:29:09;;;;;;;17.27;10.40;;;16.70;99.90;;;;;;5070030;28;20420;-53
2021/06/06 01:31:37;;;;;;;15.85;10.00;;;16.80;99.90;;;;;;5069996;28;20416;-52
2021/06/06 01:34:06;;;;;;;16.00;10.15;;;16.60;99.90;;;;;;5069100;28;20525;-52
2021/06/06 01:36:37;;;;;;;16.98;10.40;;;16.60;99.90;;;;;;5069958;28;20463;-53
2021/06/06 01:39:18;;;;;;;16.63;10.27;;;16.50;99.90;;;;;;5068722;28;20932;-53
2021/06/06 01:41:54;;;;;;;16.00;9.80;;;16.50;99.90;;;;;;5069855;28;20451;-52
2021/06/06 01:44:31;;;;;;;18.40;10.17;;;16.50;99.90;;;;;;5069981;28;20454;-52
2021/06/06 01:47:03;;;;;;;15.40;10.32;;;16.40;99.90;;;;;;5036103;28;20876;-59
2021/06/06 01:49:30;;;;;;;15.18;9.40;;;16.50;99.90;;;;;;5069934;28;20883;-52
2021/06/06 01:52:00;;;;;;;15.30;9.90;;;16.40;99.90;;;;;;5068594;28;20448;-52
2021/06/06 01:54:30;;;;;;;17.00;10.40;;;16.40;99.90;;;;;;5069401;28;20892;-53
2021/06/06 01:56:56;;;;;;;16.45;10.15;;;16.40;99.90;;;;;;5068445;28;20409;-52
2021/06/06 01:59:39;;;;;;;16.70;9.55;;;16.40;99.90;;;;;;5069018;28;20761;-53
2021/06/06 02:02:05;;;;;;;15.82;10.18;;;16.40;99.90;;;;;;5068657;28;20417;-52
2021/06/06 02:04:33;;;;;;;16.17;9.63;;;16.50;99.90;;;;;;5069498;28;20410;-52
2021/06/06 02:07:03;;;;;;;14.60;9.27;;;16.50;99.90;;;;;;5050715;28;20376;-53
2021/06/06 02:09:35;;;;;;;17.90;9.30;;;16.50;99.90;;;;;;5069977;28;20456;-52
2021/06/06 02:12:05;;;;;;;15.18;9.60;;;16.40;99.90;;;;;;5068737;28;20868;-52
2021/06/06 02:14:37;;;;;;;17.27;9.45;;;16.40;99.90;;;;;;5069592;28;20412;-53
2021/06/06 02:17:07;;;;;;;16.13;9.20;;;16.50;99.90;;;;;;5072259;28;20452;-52
2021/06/06 02:19:36;;;;;;;14.85;9.07;;;16.50;99.90;;;;;;5076161;28;20372;-53
2021/06/06 02:22:07;;;;;;;15.63;9.85;;;16.50;99.90;;;;;;5073005;28;20405;-52
2021/06/06 02:24:33;;;;;;;17.92;10.18;;;16.50;99.90;;;;;;5073568;28;20399;-52
2021/06/06 02:27:08;;;;;;;13.60;8.77;;;16.40;99.90;;;;;;5072946;28;20379;-53
2021/06/06 02:29:46;;;;;;;13.63;8.65;;;16.30;99.90;;;;;;5073103;28;20431;-52
2021/06/06 02:32:31;;;;;;;14.05;8.10;;;16.30;99.90;;;;;;5072680;28;20966;-56
2021/06/06 02:35:02;;;;;;;12.38;7.88;;;16.30;99.90;;;;;;5072438;28;20493;-54
2021/06/06 02:38:01;;;;;;;13.48;8.05;;;16.20;99.90;;;;;;5073167;28;20437;-57
2021/06/06 02:40:44;;;;;;;14.10;8.57;;;16.10;99.90;;;;;;5033319;28;20399;-53
2021/06/06 02:43:21;;;;;;;13.93;7.75;;;16.10;99.90;;;;;;5072449;28;20407;-52
2021/06/06 02:45:49;;;;;;;12.43;7.78;;;16.10;99.90;;;;;;5073023;28;20402;-52
2021/06/06 02:48:24;;;;;;;11.77;7.75;;;16.00;99.90;;;;;;5072186;28;20379;-55
2021/06/06 02:50:51;;;;;;;13.75;7.40;;;16.00;99.90;;;;;;5072686;28;20406;-58
2021/06/06 02:53:25;;;;;;;15.63;8.02;;;16.10;99.90;;;;;;5072788;28;20467;-53
2021/06/06 02:55:58;;;;;;;12.90;8.00;;;16.10;99.90;;;;;;5072616;28;20443;-60
2021/06/06 02:58:36;;;;;;;14.90;8.40;;;15.60;99.90;;;;;;5072847;28;20425;-53
2021/06/06 03:01:07;;;;;;;15.57;8.00;;;16.10;99.90;;;;;;5072155;28;20387;-53
2021/06/06 03:03:37;;;;;;;12.30;7.40;;;16.00;99.90;;;;;;5072729;28;20411;-52
2021/06/06 03:06:08;;;;;;;12.43;7.00;;;15.90;99.90;;;;;;5071608;28;20372;-53
2021/06/06 03:08:35;;;;;;;14.02;6.88;;;15.90;99.90;;;;;;5072821;28;20379;-53
2021/06/06 03:11:03;;;;;;;12.52;7.25;;;15.80;99.90;;;;;;5072044;28;20436;-52
2021/06/06 03:13:32;;;;;;;11.00;6.57;;;15.90;99.90;;;;;;5072467;28;20471;-52
2021/06/06 03:16:00;;;;;;;12.23;6.27;;;15.90;99.90;;;;;;5071709;28;20391;-52
2021/06/06 03:18:29;;;;;;;10.18;5.72;;;15.90;99.90;;;;;;5072176;28;20418;-54
2021/06/06 03:21:08;;;;;;;10.40;6.20;;;15.80;99.90;;;;;;5071786;28;20396;-56
2021/06/06 03:23:34;;;;;;;11.57;6.00;;;15.70;99.90;;;;;;5054323;28;20407;-52
2021/06/06 03:26:06;;;;;;;10.32;5.55;;;15.80;99.90;;;;;;5071347;28;20751;-52
2021/06/06 03:28:37;;;;;;;9.57;5.13;;;15.70;99.90;;;;;;5071401;28;20390;-52
2021/06/06 03:31:16;;;;;;;8.63;4.90;;;15.70;99.90;;;;;;5071807;28;20426;-52
2021/06/06 03:33:46;;;;;;;9.20;5.15;;;15.70;99.90;;;;;;5072392;28;20429;-52
2021/06/06 03:36:17;;;;;;;9.57;4.80;;;15.70;99.90;;;;;;5071269;28;20624;-52
2021/06/06 03:38:43;;;;;;;8.48;4.93;;;15.70;99.90;;;;;;5072077;28;20399;-53
2021/06/06 03:41:09;;;;;;;8.63;4.80;;;15.70;99.90;;;;;;5071674;28;20399;-52
2021/06/06 03:43:35;;;;;;;9.50;4.30;;;15.80;99.90;;;;;;5071852;28;20719;-52
2021/06/06 03:46:02;;;;;;;8.50;4.60;;;15.80;99.90;;;;;;5070943;28;20858;-52
2021/06/06 03:48:27;;;;;;;8.40;4.50;;;15.80;99.90;;;;;;5071710;28;20376;-52
2021/06/06 03:50:53;;;;;;;6.97;4.13;;;15.80;99.90;;;;;;5053194;28;20422;-58
2021/06/06 03:53:22;;;;;;;8.98;4.95;;;15.90;99.90;;;;;;5053842;28;20388;-53
2021/06/06 03:55:47;;;;;;;9.55;4.93;;;15.90;99.90;;;;;;5071940;28;20420;-52
2021/06/06 03:58:14;;;;;;;9.30;5.10;;;15.80;99.90;;;;;;5071135;28;21079;-54
2021/06/06 04:00:44;;;;;;;9.50;4.70;;;15.80;99.90;;;;;;5071769;28;20368;-54
2021/06/06 04:03:12;;;;;;;8.10;4.60;;;15.80;99.90;;;;;;5070605;28;20380;-54
2021/06/06 04:05:38;;;;;;;9.05;4.38;;;15.80;99.90;;;;;;5071609;28;20383;-53
2021/06/06 04:08:06;;;;;;;9.43;4.93;;;15.80;99.90;;;;;;5053274;28;20437;-52
2021/06/06 04:10:32;;;;;;;8.00;4.85;;;15.80;99.90;;;;;;5071363;28;20371;-54
2021/06/06 04:12:58;;;;;;;8.30;4.63;;;15.80;99.90;;;;;;5052615;28;20742;-53
2021/06/06 04:15:24;;;;;;;8.65;4.90;;;15.80;99.90;;;;;;5071394;28;20420;-52
2021/06/06 04:17:50;;;;;;;7.07;4.37;;;15.70;99.90;;;;;;5071188;28;20499;-55
2021/06/06 04:20:17;;;;;;;10.50;4.80;;;15.70;99.90;;;;;;5070593;28;20384;-52
2021/06/06 04:22:43;;;;;;;8.57;4.25;;;15.70;99.90;;;;;;5071388;28;20885;-52
2021/06/06 04:25:10;;;;;;;7.80;4.30;;;15.80;99.90;;;;;;5070507;28;20387;-56
2021/06/06 04:27:36;;;;;;;7.18;3.80;;;15.80;99.90;;;;;;5053378;28;20869;-52
2021/06/06 04:30:04;;;;;;;7.70;4.50;;;15.80;99.90;;;;;;5070474;28;20416;-53
2021/06/06 04:32:30;;;;;;;6.78;4.18;;;15.70;99.90;;;;;;5053134;28;20510;-53
2021/06/06 04:34:56;;;;;;;7.50;3.90;;;15.70;99.90;;;;;;5070490;28;20458;-58
2021/06/06 04:37:21;;;;;;;6.40;3.70;;;15.70;99.90;;;;;;5070900;28;20437;-52
2021/06/06 04:39:47;;;;;;;7.27;4.13;;;15.70;99.90;;;;;;5070765;28;20410;-53
2021/06/06 04:42:21;;;;;;;7.80;4.30;;;15.80;99.90;;;;;;5070238;28;20380;-53
2021/06/06 04:44:48;;;;;;;6.32;3.80;;;15.90;99.90;;;;;;5070577;28;20747;-53
2021/06/06 04:47:14;;;;;;;6.87;3.97;;;15.90;99.90;;;;;;5069580;28;20513;-53
2021/06/06 04:49:41;;;;;;;8.18;4.03;;;15.80;99.90;;;;;;5070544;28;20454;-53
2021/06/06 04:52:09;;;;;;;8.70;4.07;;;15.80;99.90;;;;;;5069842;28;20458;-53
2021/06/06 04:54:35;;;;;;;8.20;4.25;;;15.80;99.90;;;;;;5070897;28;20392;-52
2021/06/06 04:57:01;;;;;;;7.73;4.00;;;15.70;99.90;;;;;;5069974;28;20384;-53
2021/06/06 04:59:27;;;;;;;8.00;4.38;;;15.70;99.90;;;;;;5070277;28;20508;-53
2021/06/06 05:01:53;;;;;;;7.15;3.92;;;15.80;99.90;;;;;;5069837;28;20380;-58
2021/06/06 05:04:19;;;;;;;8.50;4.30;;;15.80;99.90;;;;;;5069855;28;20387;-52
2021/06/06 05:06:45;;;;;;;8.93;4.75;;;15.80;99.90;;;;;;5070299;28;20910;-52
2021/06/06 05:09:11;;;;;;;7.82;4.43;;;15.80;99.90;;;;;;5069548;28;20471;-53
2021/06/06 05:11:37;;;;;;;8.10;4.60;;;15.80;99.90;;;;;;5070525;28;20413;-52
2021/06/06 05:14:05;;;;;;;7.97;4.50;;;15.80;99.90;;;;;;5069614;28;20401;-52
2021/06/06 05:16:31;;;;;;;9.32;5.20;;;15.70;99.90;;;;;;5070196;28;20398;-53
2021/06/06 05:18:57;;;;;;;8.80;5.40;;;15.70;99.90;;;;;;5069438;28;20420;-54
2021/06/06 05:21:25;;;;;;;10.27;5.60;;;15.80;99.90;;;;;;5070101;28;20399;-53
2021/06/06 05:23:51;;;;;;;9.57;4.80;;;15.90;99.90;;;;;;5070091;28;20994;-54
2021/06/06 05:26:17;;;;;;;9.57;5.10;;;15.90;99.90;;;;;;5069033;28;20911;-54
2021/06/06 05:28:44;;;;;;;11.07;5.40;;;15.80;99.90;;;;;;5070080;28;20395;-53
2021/06/06 05:31:12;;;;;;;11.88;4.93;;;15.70;99.90;;;;;;5069117;28;20387;-53
2021/06/06 05:33:37;;;;;;;10.95;5.60;;;15.80;99.90;;;;;;5069959;28;20853;-53
2021/06/06 05:36:04;;;;;;;12.45;5.25;;;15.70;99.90;;;;;;5051099;28;20395;-54
2021/06/06 05:38:32;;;;;;;10.30;5.40;;;15.70;99.90;;;;;;5070939;28;20808;-55
2021/06/06 05:40:59;;;;;;;9.65;5.05;;;15.60;99.90;;;;;;5079122;28;20879;-53
2021/06/06 05:43:26;;;;;;;9.00;5.43;;;15.70;99.90;;;;;;5090125;28;20418;-52
2021/06/06 05:45:52;;;;;;;8.65;5.00;;;15.80;99.90;;;;;;5082015;28;20430;-53
2021/06/06 05:48:19;;;;;;;8.80;5.23;;;15.70;99.90;;;;;;5069344;28;20371;-52
2021/06/06 05:50:47;;;;;;;10.63;5.38;;;15.80;99.90;;;;;;5067523;28;20391;-53
2021/06/06 05:53:13;;;;;;;11.60;6.20;;;16.00;99.90;;;;;;5074977;28;21133;-52
2021/06/06 05:55:38;;;;;;;11.88;5.60;;;15.90;99.90;;;;;;5073255;28;20375;-52
2021/06/06 05:58:05;;;;;;;12.10;6.80;;;16.00;99.90;;;;;;5068001;28;20407;-52
2021/06/06 06:00:37;;;;;;;12.50;6.23;;;15.80;99.90;;;;;;5084976;28;20378;-52
2021/06/06 06:03:04;;;;;;;11.23;6.15;;;15.80;99.90;;;;;;5068030;28;20389;-52
2021/06/06 06:05:30;;;;;;;12.30;6.10;;;15.80;99.90;;;;;;5051383;28;20375;-52
2021/06/06 06:07:56;;;;;;;11.20;5.80;;;15.80;99.90;;;;;;5068480;28;20845;-58
2021/06/06 06:10:28;;;;;;;11.67;6.10;;;15.90;99.90;;;;;;5069001;28;20482;-52
2021/06/06 06:12:54;;;;;;;10.45;6.00;;;15.90;99.90;;;;;;5069105;28;20707;-59
2021/06/06 06:15:20;;;;;;;10.35;5.85;;;15.80;99.90;;;;;;5068758;28;20376;-52
2021/06/06 06:17:46;;;;;;;11.90;6.32;;;15.70;99.90;;;;;;5068477;28;20532;-53
2021/06/06 06:20:15;;;;;;;11.50;6.57;;;15.90;99.90;;;;;;5068195;28;20467;-54
2021/06/06 06:22:41;;;;;;;9.82;6.15;;;15.80;99.90;;;;;;5071496;28;20398;-53
2021/06/06 06:25:08;;;;;;;11.85;6.55;;;15.80;99.90;;;;;;5074412;28;20396;-52
2021/06/06 06:27:34;;;;;;;12.15;7.22;;;15.80;99.90;;;;;;5071314;28;20482;-53
2021/06/06 06:30:00;;;;;;;11.98;7.30;;;16.00;99.90;;;;;;5070568;28;20390;-53
2021/06/06 06:32:27;;;;;;;9.95;6.40;;;15.90;99.90;;;;;;5068878;28;20392;-53
2021/06/06 06:34:53;;;;;;;11.38;6.97;;;15.80;99.90;;;;;;5069694;28;20932;-52
2021/06/06 06:37:20;;;;;;;11.32;6.70;;;15.80;99.90;;;;;;5067582;28;20463;-53
2021/06/06 06:39:46;;;;;;;10.95;6.90;;;15.80;99.90;;;;;;5068610;28;20540;-52
2021/06/06 06:42:12;;;;;;;11.70;7.20;;;15.90;99.90;;;;;;5068476;28;20384;-53
2021/06/06 06:44:38;;;;;;;12.17;7.20;;;16.10;99.90;;;;;;5068457;28;20449;-52
2021/06/06 06:47:04;;;;;;;10.97;7.57;;;16.10;99.90;;;;;;5068034;28;20404;-52
2021/06/06 06:49:29;;;;;;;10.18;6.80;;;16.00;99.90;;;;;;5068760;28;20726;-52
2021/06/06 06:51:55;;;;;;;9.70;6.40;;;16.10;99.90;;;;;;5067181;28;20392;-59
2021/06/06 06:54:21;;;;;;;10.05;6.88;;;16.10;99.90;;;;;;5064267;28;20402;-55
2021/06/06 06:56:47;;;;;;;11.40;7.20;;;16.10;99.90;;;;;;5072075;28;20434;-54
2021/06/06 06:59:13;;;;;;;12.60;7.17;;;16.10;99.90;;;;;;5073056;28;20406;-54
2021/06/06 07:01:38;;;;;;;11.80;7.20;;;16.10;99.90;;;;;;5072147;28;20388;-53
2021/06/06 07:04:04;;;;;;;10.77;7.15;;;16.10;99.90;;;;;;5069712;28;20435;-52
2021/06/06 07:06:30;;;;;;;11.45;7.18;;;16.10;99.90;;;;;;5058735;28;20425;-53
2021/06/06 07:08:55;;;;;;;10.63;6.97;;;16.10;99.90;;;;;;5079238;28;20428;-58
2021/06/06 07:11:23;;;;;;;10.60;6.60;;;16.10;99.90;;;;;;5073981;28;20479;-52
2021/06/06 07:13:49;;;;;;;9.93;6.57;;;16.10;99.90;;;;;;5088395;28;20784;-54
2021/06/06 07:16:17;;;;;;;11.48;7.35;;;16.10;99.90;;;;;;5074029;28;20383;-52
2021/06/06 07:18:42;;;;;;;11.68;6.60;;;16.20;99.90;;;;;;5078510;28;20494;-51
2021/06/06 07:21:14;;;;;;;11.32;7.10;;;16.20;99.90;;;;;;5081569;28;20910;-54
2021/06/06 07:23:41;;;;;;;12.88;7.30;;;16.20;99.90;;;;;;5078567;28;20386;-53
2021/06/06 07:26:12;;;;;;;10.20;6.78;;;16.30;99.90;;;;;;5080892;28;20399;-53
2021/06/06 07:28:37;;;;;;;12.25;6.70;;;16.40;99.90;;;;;;5077978;28;20425;-52
2021/06/06 07:31:04;;;;;;;12.87;7.43;;;16.50;99.90;;;;;;5062485;28;20386;-51
2021/06/06 07:33:35;;;;;;;11.07;7.30;;;16.50;99.90;;;;;;5080641;28;20380;-54
2021/06/06 07:36:03;;;;;;;12.65;7.55;;;16.40;99.90;;;;;;5079409;28;20376;-54
2021/06/06 07:38:29;;;;;;;13.60;7.72;;;16.50;99.90;;;;;;5080801;28;20494;-51
2021/06/06 07:40:56;;;;;;;10.75;7.60;;;16.60;99.90;;;;;;5081038;28;20457;-58
2021/06/06 07:43:22;;;;;;;11.88;7.30;;;16.50;99.90;;;;;;5080606;28;20398;-51
2021/06/06 07:45:48;;;;;;;16.15;8.30;;;16.60;99.90;;;;;;5062880;28;20390;-52
2021/06/06 07:48:14;;;;;;;13.32;7.63;;;16.50;99.90;;;;;;5080683;28;20440;-52
2021/06/06 07:50:44;;;;;;;14.07;8.60;;;16.40;99.90;;;;;;5079806;28;20380;-52
2021/06/06 07:53:11;;;;;;;12.60;8.05;;;16.40;99.90;;;;;;5080203;28;20487;-53
2021/06/06 07:55:37;;;;;;;13.27;8.48;;;16.50;99.90;;;;;;5060998;28;20407;-51
2021/06/06 07:58:03;;;;;;;12.50;7.70;;;16.50;99.90;;;;;;5079443;28;20407;-51
2021/06/06 08:00:32;;;;;;;14.10;7.80;;;16.60;99.90;;;;;;5080330;28;20410;-51
2021/06/06 08:02:58;;;;;;;13.35;9.10;;;16.50;99.90;;;;;;5079077;28;20388;-53
2021/06/06 08:05:24;;;;;;;12.43;8.30;;;16.70;99.90;;;;;;5079595;28;20887;-51
2021/06/06 08:07:51;;;;;;;14.27;9.05;;;16.70;99.90;;;;;;5081262;28;20387;-51
2021/06/06 08:10:19;;;;;;;14.90;9.38;;;16.60;99.90;;;;;;5077947;28;20455;-52
2021/06/06 08:12:45;;;;;;;15.00;8.30;;;16.50;99.90;;;;;;5079115;28;20378;-51
2021/06/06 08:15:12;;;;;;;13.85;8.30;;;16.50;99.90;;;;;;5080117;28;20923;-51
2021/06/06 08:17:38;;;;;;;13.93;8.60;;;16.60;99.90;;;;;;5079017;28;20465;-51
2021/06/06 08:20:18;;;;;;;15.03;8.47;;;16.70;99.90;;;;;;5078234;28;20850;-51
2021/06/06 08:22:44;;;;;;;13.48;8.25;;;16.70;99.90;;;;;;5081874;28;20440;-52
2021/06/06 08:25:11;;;;;;;15.88;9.15;;;16.70;99.90;;;;;;5079595;28;20382;-52
2021/06/06 08:27:39;;;;;;;18.42;9.35;;;16.60;99.90;;;;;;5080618;28;20395;-52
2021/06/06 08:30:21;;;;;;;16.85;9.57;;;16.60;99.90;;;;;;5077048;28;20388;-51
2021/06/06 08:32:46;;;;;;;18.08;10.10;;;16.60;99.90;;;;;;5080165;28;20485;-52
2021/06/06 08:35:13;;;;;;;17.30;10.02;;;16.60;99.90;;;;;;5079176;28;20681;-51
2021/06/06 08:37:38;;;;;;;19.77;10.30;;;16.60;99.90;;;;;;5078730;28;20410;-51
2021/06/06 08:40:09;;;;;;;18.80;10.52;;;16.60;99.90;;;;;;5079500;28;20937;-52
2021/06/06 08:42:41;;;;;;;16.67;9.85;;;16.60;99.90;;;;;;5059791;28;20892;-52
2021/06/06 08:45:19;;;;;;;16.15;9.93;;;16.80;99.90;;;;;;5077436;28;20376;-51
2021/06/06 08:47:45;;;;;;;16.77;10.30;;;16.90;99.90;;;;;;5084140;28;20975;-53
2021/06/06 08:50:18;;;;;;;17.33;10.37;;;16.80;99.90;;;;;;5084692;28;20378;-51
2021/06/06 08:52:53;;;;;;;19.23;10.85;;;16.70;99.90;;;;;;5085019;28;20424;-52
2021/06/06 08:55:43;;;;;;;19.47;10.20;;;16.70;99.90;;;;;;5076000;28;20398;-53
2021/06/06 08:58:18;;;;;;;18.40;10.48;;;16.80;99.90;;;;;;5071624;28;20419;-51
2021/06/06 09:00:47;;;;;;;18.25;10.25;;;16.70;99.90;;;;;;5071070;28;20384;-50
2021/06/06 09:03:26;;;;;;;20.17;10.70;;;16.60;99.90;;;;;;5070819;28;20376;-50
2021/06/06 09:06:03;;;;;;;22.42;12.98;;;16.60;99.90;;;;;;5077997;28;20392;-51
2021/06/06 09:08:33;;;;;;;20.80;11.60;;;16.60;99.90;;;;;;5077456;28;20868;-50
2021/06/06 09:11:04;;;;;;;22.85;12.98;;;16.60;99.90;;;;;;5076977;28;20509;-57
2021/06/06 09:13:31;;;;;;;23.45;12.98;;;16.50;99.90;;;;;;5079793;28;20405;-50
2021/06/06 09:16:21;;;;;;;25.75;13.93;;;16.50;99.90;;;;;;5061472;28;20402;-56
2021/06/06 09:18:58;;;;;;;27.30;14.18;;;16.40;99.90;;;;;;5071892;28;20408;-50
2021/06/06 09:21:24;;;;;;;30.77;16.20;;;16.40;99.90;;;;;;5068387;28;20398;-53
2021/06/06 09:23:52;;;;;;;34.25;18.08;;;16.50;99.90;;;;;;5086521;28;20919;-51
2021/06/06 09:26:17;;;;;;;34.92;18.73;;;16.40;99.90;;;;;;5084434;28;20556;-50
2021/06/06 09:29:02;;;;;;;37.15;19.95;;;15.20;99.90;;;;;;5086874;28;20859;-51
2021/06/06 09:31:28;;;;;;;40.17;20.80;;;17.60;99.90;;;;;;5070453;28;20385;-53
2021/06/06 09:33:54;;;;;;;42.20;23.05;;;16.40;99.90;;;;;;5074665;28;20812;-49
2021/06/06 09:36:20;;;;;;;40.57;22.10;;;16.40;99.90;;;;;;5077307;28;20524;-50
2021/06/06 09:38:48;;;;;;;42.65;22.88;;;16.60;99.90;;;;;;5077597;28;20418;-50
2021/06/06 09:41:22;;;;;;;52.63;26.13;;;16.50;99.90;;;;;;5082360;28;20396;-50
2021/06/06 09:44:25;;;;;;;51.95;26.08;;;16.60;99.90;;;;;;5075097;28;20472;-50
2021/06/06 09:47:04;;;;;;;52.47;28.35;;;16.60;99.90;;;;;;5067291;28;20870;-50
2021/06/06 09:49:45;;;;;;;53.88;29.27;;;16.70;99.90;;;;;;5078926;28;20475;-51
2021/06/06 09:52:29;;;;;;;59.10;30.30;;;16.50;99.90;;;;;;5073988;28;20794;-50
2021/06/06 09:54:57;;;;;;;54.38;28.73;;;16.60;99.90;;;;;;5069866;28;20485;-50
2021/06/06 09:57:36;;;;;;;52.97;29.55;;;16.60;99.90;;;;;;5072050;28;20495;-49
2021/06/06 10:00:22;;;;;;;56.72;28.98;;;16.60;99.90;;;;;;5076957;28;20376;-50
2021/06/06 10:02:53;;;;;;;56.50;29.08;;;15.10;99.90;;;;;;5077878;28;20378;-50
2021/06/06 10:05:32;;;;;;;49.43;27.23;;;16.80;99.90;;;;;;5075188;28;20991;-53
2021/06/06 10:08:17;;;;;;;50.08;28.83;;;17.00;99.90;;;;;;5081838;28;20401;-56
2021/06/06 10:10:47;;;;;;;57.97;30.33;;;17.00;99.90;;;;;;5075172;28;20900;-50
2021/06/06 10:13:17;;;;;;;58.20;30.40;;;16.90;99.90;;;;;;5074629;28;20386;-51
2021/06/06 10:15:47;;;;;;;59.10;31.30;;;17.00;99.90;;;;;;5052993;28;20388;-53
2021/06/06 10:18:13;;;;;;;65.22;32.90;;;17.00;99.90;;;;;;5066410;28;20411;-52
2021/06/06 10:20:45;;;;;;;69.13;33.83;;;17.00;99.90;;;;;;5072764;28;20400;-52
2021/06/06 10:23:20;;;;;;;62.58;33.78;;;17.00;99.90;;;;;;5074652;28;20898;-53
2021/06/06 10:26:07;;;;;;;66.47;33.65;;;17.00;99.90;;;;;;5072232;28;20400;-51
2021/06/06 10:28:50;;;;;;;61.58;32.85;;;17.00;99.90;;;;;;5069146;28;20396;-51
2021/06/06 10:31:37;;;;;;;66.97;32.83;;;16.90;99.90;;;;;;5072407;28;20395;-52
2021/06/06 10:34:23;;;;;;;67.05;32.08;;;16.80;99.90;;;;;;5075444;28;20378;-54
2021/06/06 10:36:49;;;;;;;73.18;35.25;;;16.70;99.90;;;;;;5075643;28;20441;-51
2021/06/06 10:39:19;;;;;;;74.40;36.95;;;16.50;99.90;;;;;;5082388;28;20405;-50
2021/06/06 10:42:08;;;;;;;82.07;38.97;;;16.50;99.90;;;;;;5060601;28;20923;-50
2021/06/06 10:44:55;;;;;;;87.20;39.70;;;16.60;99.90;;;;;;5077808;28;20415;-50
2021/06/06 10:47:36;;;;;;;83.65;39.72;;;16.70;99.90;;;;;;5075462;28;20583;-54
2021/06/06 10:50:13;;;;;;;81.78;38.47;;;16.70;99.90;;;;;;5078252;28;20446;-57
2021/06/06 10:52:40;;;;;;;91.30;42.92;;;16.70;99.90;;;;;;5075502;28;20458;-51
2021/06/06 10:55:28;;;;;;;91.10;42.10;;;16.70;99.90;;;;;;5078874;28;20393;-55
2021/06/06 10:57:55;;;;;;;89.43;43.47;;;16.70;99.90;;;;;;5077507;28;20417;-51
2021/06/06 11:00:31;;;;;;;99.07;42.88;;;16.80;99.90;;;;;;5076096;28;20594;-51
2021/06/06 11:03:12;;;;;;;93.70;41.80;;;16.70;99.90;;;;;;5079804;28;20439;-51
2021/06/06 11:05:52;;;;;;;92.53;44.13;;;16.90;99.90;;;;;;5078575;28;20385;-50
2021/06/06 11:08:31;;;;;;;90.25;40.85;;;17.10;99.90;;;;;;5081317;28;20434;-51
2021/06/06 11:11:09;;;;;;;91.32;42.95;;;17.00;99.90;;;;;;5081124;28;20420;-50
2021/06/06 11:13:38;;;;;;;86.28;42.63;;;17.00;99.90;;;;;;5076738;28;20404;-50
2021/06/06 11:16:23;;;;;;;89.88;42.17;;;17.10;99.90;;;;;;5077020;28;20413;-51
2021/06/06 11:18:57;;;;;;;86.25;42.92;;;17.10;99.90;;;;;;5063931;28;20760;-51
2021/06/06 11:22:07;;;;;;;81.60;39.55;;;17.00;99.90;;;;;;5077527;28;20391;-50
2021/06/06 11:24:38;;;;;;;76.57;39.05;;;17.20;99.90;;;;;;5064426;28;20415;-51
2021/06/06 11:27:14;;;;;;;80.70;38.53;;;17.10;99.90;;;;;;5076097;28;20472;-54
2021/06/06 11:29:52;;;;;;;73.68;37.42;;;17.10;99.90;;;;;;5077623;28;20392;-53
2021/06/06 11:32:38;;;;;;;70.18;37.45;;;17.10;99.90;;;;;;5075523;28;20393;-50
2021/06/06 11:35:35;;;;;;;62.03;34.10;;;17.10;99.90;;;;;;5072309;28;20408;-51
2021/06/06 11:38:27;;;;;;;62.97;33.30;;;17.20;99.90;;;;;;5077090;28;21108;-55
2021/06/06 11:41:34;;;;;;;61.03;32.58;;;17.20;99.90;;;;;;5048327;28;20399;-50
2021/06/06 11:44:38;;;;;;;64.70;33.17;;;17.40;99.90;;;;;;5076859;28;20404;-54
2021/06/06 11:47:43;;;;;;;55.58;30.42;;;17.30;99.90;;;;;;5079237;28;20918;-56
2021/06/06 11:50:12;;;;;;;56.97;31.20;;;17.40;99.90;;;;;;5053408;28;20443;-50
2021/06/06 11:52:59;;;;;;;58.67;32.55;;;17.40;99.90;;;;;;5062375;28;20466;-53
2021/06/06 11:55:29;;;;;;;58.20;31.97;;;17.50;99.90;;;;;;5072277;28;20404;-51
2021/06/06 11:58:15;;;;;;;59.30;32.00;;;17.70;99.90;;;;;;5068077;28;20477;-55
2021/06/06 12:00:47;;;;;;;65.03;32.40;;;17.50;99.90;;;;;;5076978;28;20936;-49
2021/06/06 12:03:36;;;;;;;60.07;32.00;;;17.50;99.90;;;;;;5073173;28;20384;-50
2021/06/06 12:06:28;;;;;;;51.47;29.97;;;17.60;99.90;;;;;;5079112;28;20416;-55
2021/06/06 12:08:57;;;;;;;54.78;30.30;;;17.60;99.90;;;;;;5068798;28;20889;-54
2021/06/06 12:11:31;;;;;;;54.75;31.15;;;17.60;99.90;;;;;;5073303;28;20526;-53
2021/06/06 12:14:20;;;;;;;60.05;32.60;;;17.60;99.90;;;;;;5074124;28;20388;-50
2021/06/06 12:16:46;;;;;;;65.60;35.00;;;17.60;99.90;;;;;;5073334;28;20386;-50
2021/06/06 12:19:15;;;;;;;68.05;34.60;;;17.60;99.90;;;;;;5078274;28;20412;-51
2021/06/06 12:21:45;;;;;;;64.28;33.63;;;17.70;99.90;;;;;;5076526;28;20411;-50
2021/06/06 12:24:21;;;;;;;63.33;34.05;;;17.70;99.90;;;;;;5061431;28;20804;-51
2021/06/06 12:27:06;;;;;;;68.82;35.88;;;17.70;99.90;;;;;;5060238;28;20739;-50
2021/06/06 12:29:38;;;;;;;69.95;35.95;;;17.70;99.90;;;;;;5073801;28;20403;-50
2021/06/06 12:32:10;;;;;;;66.82;36.65;;;17.80;99.90;;;;;;5073538;28;20389;-56
2021/06/06 12:34:36;;;;;;;71.75;35.17;;;17.90;99.90;;;;;;5076461;28;20831;-51
2021/06/06 12:37:10;;;;;;;69.60;35.60;;;17.80;99.90;;;;;;5074797;28;20490;-50
2021/06/06 12:39:43;;;;;;;67.90;37.20;;;18.00;99.90;;;;;;5077492;28;20748;-50
2021/06/06 12:42:10;;;;;;;68.97;35.15;;;18.10;99.90;;;;;;5074492;28;20386;-50
2021/06/06 12:44:42;;;;;;;66.20;36.63;;;18.20;99.90;;;;;;5068943;28;20390;-51
2021/06/06 12:47:23;;;;;;;65.25;36.08;;;18.40;99.90;;;;;;5070519;28;20434;-51
2021/06/06 12:49:59;;;;;;;66.05;37.95;;;18.40;99.90;;;;;;5072844;28;20927;-53
2021/06/06 12:52:33;;;;;;;70.22;38.45;;;18.50;99.90;;;;;;5077598;28;20545;-50
2021/06/06 12:55:28;;;;;;;70.83;37.50;;;18.30;99.90;;;;;;5077537;28;20424;-50